ADDS METAR Data INFO
IDs: Format: Raw Decoded Include TAF

Data at: 0350 UTC 19 Jul 2018

KAXX 190335Z AUTO 26003KT 10SM CLR 16/10 A3043 RMK AO2 T01570099
KAXX 190315Z AUTO 00000KT 10SM CLR 17/09 A3042 RMK AO2 T01650085
KAXX 190255Z AUTO 00000KT 10SM CLR 16/09 A3041 RMK AO2 T01590090
KAXX 190235Z AUTO 30004KT 10SM CLR 17/10 A3041 RMK AO2 T01730095
KAXX 190215Z AUTO 00000KT 10SM CLR 19/09 A3040 RMK AO2 T01860085
KAXX 190155Z AUTO 25004KT 10SM CLR 18/09 A3039 RMK AO2 T01840088
KAXX 190135Z AUTO 15006KT 10SM CLR 23/06 A3039 RMK AO2 T02280063
KAXX 190115Z AUTO 13010G15KT 10SM CLR 25/06 A3038 RMK AO2 T02450059
KAXX 190055Z AUTO 00000KT 10SM CLR 26/M03 A3039 RMK AO2 T02621028
KAXX 190035Z AUTO 36005KT 10SM CLR 27/01 A3038 RMK AO2 T02650010
KAXX 190015Z AUTO 00000KT 10SM CLR 27/M01 A3037 RMK AO2 T02691010
KAXX 182355Z AUTO 11004KT 10SM CLR 27/M01 A3037 RMK AO2 T02741013 10275 20227
KAXX 182335Z AUTO 00000KT 10SM CLR 27/00 A3039 RMK AO2 T02700000
KAXX 182315Z AUTO 00000KT 10SM CLR 28/M01 A3039 RMK AO2 T02751014
KAXX 182255Z AUTO 00000KT 10SM CLR 27/M01 A3039 RMK AO2 T02721012
KAXX 182235Z AUTO 35004G08KT 10SM CLR 27/00 A3039 RMK AO2 T02700003
KAXX 182215Z AUTO 01005KT 10SM CLR 27/03 A3040 RMK AO2 T02680025
KAXX 182155Z AUTO 02009KT 10SM CLR 27/02 A3041 RMK AO2 T02710015
KAXX 182135Z AUTO 11005KT 10SM CLR 27/01 A3041 RMK AO2 T02680013
KAXX 182115Z AUTO 02005KT 10SM CLR 27/02 A3042 RMK AO2 T02670019
KAXX 182055Z AUTO 03005KT 10SM CLR 26/03 A3042 RMK AO2 T02630031
KAXX 182035Z AUTO 34004KT 10SM CLR 27/04 A3043 RMK AO2 T02650039
KAXX 182015Z AUTO 31005KT 10SM CLR 26/04 A3044 RMK AO2 T02580038
KAXX 181955Z AUTO 35008KT 320V020 10SM CLR 26/03 A3044 RMK AO2 T02600025
KAXX 181935Z AUTO 36009G14KT 10SM CLR 26/03 A3044 RMK AO2 T02560034
KAXX 181915Z AUTO 01004KT 10SM CLR 25/04 A3045 RMK AO2 T02540036
KAXX 181855Z AUTO 00000KT 10SM CLR 24/07 A3045 RMK AO2 T02430072
KAXX 181835Z AUTO 21004KT 10SM CLR 24/08 A3046 RMK AO2 T02350081
KAXX 181815Z AUTO 00000KT 10SM CLR 23/07 A3046 RMK AO2 T02330066
KAXX 181755Z AUTO 22004KT 10SM CLR 23/10 A3047 RMK AO2 T02260099 10226 20090
KAXX 181735Z AUTO 26006KT 10SM CLR 22/10 A3048 RMK AO2 T02210102
KAXX 181715Z AUTO 19003KT 10SM CLR 21/12 A3048 RMK AO2 T02130116
KAXX 181655Z AUTO 00000KT 10SM CLR 20/11 A3048 RMK AO2 T02020107
KAXX 181635Z AUTO 00000KT 10SM CLR 19/13 A3048 RMK AO2 T01920128
KAXX 181615Z AUTO 00000KT 10SM CLR 17/14 A3048 RMK AO2 T01690137
KAXX 181555Z AUTO 00000KT 10SM CLR 15/14 A3048 RMK AO2 T01490136
KAXX 181535Z AUTO 07003KT 10SM SCT001 13/13 A3049 RMK AO2 T01290125
KAXX 181515Z AUTO 00000KT 7SM OVC001 12/11 A3049 RMK AO2 T01160113
KAXX 181455Z AUTO 00000KT 2 1/2SM BR OVC001 11/11 A3050 RMK AO2 VIS 1 1/2V5 T01100107
KAXX 181435Z AUTO 00000KT 1 1/2SM BR OVC001 11/10 A3050 RMK AO2 T01050102
KAXX 181415Z AUTO 00000KT 1/2SM FG OVC001 10/10 A3050 RMK AO2 T01000097
KAXX 181355Z AUTO 00000KT 1/4SM FG OVC001 10/09 A3050 RMK AO2 T00950091
KAXX 181335Z AUTO 00000KT 1/4SM FG OVC001 09/09 A3050 RMK AO2 T00900087
KAXX 181315Z AUTO 00000KT M1/4SM FG OVC001 09/09 A3049 RMK AO2 T00910088
KAXX 181255Z AUTO 00000KT 1/4SM FG OVC001 09/09 A3049 RMK AO2 T00900087
KAXX 181235Z AUTO 00000KT 1/4SM FG OVC001 09/09 A3049 RMK AO2 T00910089
KAXX 181215Z AUTO 00000KT M1/4SM FG OVC001 09/09 A3049 RMK AO2 T00900087
KAXX 181155Z AUTO 00000KT M1/4SM FG OVC001 09/09 A3049 RMK AO2 70024 T00900086 10118 20090
KAXX 181135Z AUTO 00000KT 1/4SM FG OVC001 09/09 A3049 RMK AO2 T00900086
KAXX 181115Z AUTO 00000KT 1/4SM FG OVC001 09/09 A3048 RMK AO2 T00920088
KAXX 181055Z AUTO 00000KT 1/4SM FG OVC001 09/09 A3047 RMK AO2 T00930089
KAXX 181035Z AUTO 00000KT 1/4SM FG OVC001 10/09 A3048 RMK AO2 T00950091
KAXX 181015Z AUTO 00000KT 3/4SM BR OVC001 10/10 A3047 RMK AO2 T01000095
KAXX 180955Z AUTO 00000KT 1/2SM FG OVC001 10/10 A3047 RMK AO2 T00990095
KAXX 180935Z AUTO 00000KT 1/4SM FG OVC001 10/10 A3048 RMK AO2 T01020097
KAXX 180915Z AUTO 00000KT 1/4SM FG OVC001 10/10 A3048 RMK AO2 T01040099
KAXX 180855Z AUTO 00000KT 10SM OVC001 10/10 A3048 RMK AO2 T01040099
KAXX 180835Z AUTO 00000KT 2 1/2SM BR OVC003 10/10 A3048 RMK AO2 T01040099
KAXX 180815Z AUTO 00000KT 10SM BKN003 BKN090 OVC120 10/10 A3049 RMK AO2 T01020097
KAXX 180755Z AUTO 00000KT 5SM BR SCT003 SCT090 BKN120 11/10 A3049 RMK AO2 T01050099
KAXX 180735Z AUTO 00000KT 10SM SCT120 12/11 A3050 RMK AO2 T01150108
KAXX 180715Z AUTO 00000KT 10SM SCT120 12/11 A3049 RMK AO2 T01150108
KAXX 180655Z AUTO 28004KT 10SM OVC120 12/11 A3049 RMK AO2 T01150108
KAXX 180635Z AUTO 20004KT 10SM SCT005 OVC110 12/11 A3049 RMK AO2 T01150108
KAXX 180615Z AUTO 00000KT 10SM SCT005 OVC110 12/11 A3050 RMK AO2 T01170110
KAXX 180555Z AUTO 04004KT 10SM SCT005 BKN110 12/11 A3051 RMK AO2 60024 T01170110 10177 20105 402380085
KAXX 180535Z AUTO 00000KT 10SM SCT003 SCT095 11/10 A3050 RMK AO2 T01100103
KAXX 180515Z AUTO 00000KT 10SM BKN003 OVC095 11/10 A3050 RMK AO2 T01080102
KAXX 180455Z AUTO 00000KT 10SM BKN005 11/10 A3051 RMK AO2 T01070100
KAXX 180435Z AUTO 00000KT 10SM CLR 11/10 A3052 RMK AO2 T01070100
KAXX 180415Z AUTO 00000KT 10SM SCT002 SCT110 12/11 A3052 RMK AO2 T01150107
KAXX 180355Z AUTO 00000KT 10SM SCT110 12/12 A3052 RMK AO2 T01240117
KAXX 180335Z AUTO 00000KT 10SM SCT090 13/12 A3052 RMK AO2 T01260117
KAXX 180315Z AUTO 00000KT 10SM BKN090 13/12 A3052 RMK AO2 T01340118
KAXX 180255Z AUTO 00000KT 10SM OVC080 14/12 A3052 RMK AO2 P0005 60024 T01350123
KAXX 180235Z AUTO 01005KT 10SM -RA SCT033 SCT040 OVC080 13/12 A3053 RMK AO2 P0004 T01330124
KAXX 180215Z AUTO 02010KT 7SM RA SCT015 BKN031 OVC060 14/13 A3053 RMK AO2 P0003 T01350125
KAXX 180155Z AUTO 03010G15KT 5SM -RA SCT013 BKN031 OVC070 14/13 A3054 RMK AO2 P0019 T01400130
KAXX 180135Z AUTO 00000KT 4SM +RA SCT019 SCT033 OVC080 14/13 A3052 RMK AO2 P0016 T01410131
KAXX 180115Z AUTO 13005KT 1 3/4SM RA SCT021 BKN037 OVC080 14/13 A3050 RMK AO2 VIS 3/4V5 P0011 T01430132
KAXX 180055Z AUTO 16009KT 10SM -RA SCT041 BKN060 OVC075 16/14 A3050 RMK AO2 T01550136
KAXX 180035Z AUTO 17008KT 110V200 10SM OVC060 17/13 A3049 RMK AO2 T01650134
KAXX 180015Z AUTO 00000KT 10SM -RA BKN060 OVC075 18/13 A3047 RMK AO2 T01750134
KAXX 172355Z AUTO 18008KT 10SM BKN060 BKN110 18/14 A3046 RMK AO2 T01780136 10238 20176
KAXX 172335Z AUTO 18010KT 10SM BKN070 BKN080 BKN110 19/14 A3047 RMK AO2 T01890138
KAXX 172315Z AUTO 36003KT 10SM BKN070 OVC080 19/12 A3046 RMK AO2 T01880115
KAXX 172255Z AUTO 02008KT 10SM SCT048 BKN070 OVC090 19/11 A3046 RMK AO2 T01870112
KAXX 172235Z AUTO 01010KT 10SM -RA SCT044 BKN050 OVC070 19/11 A3047 RMK AO2 T01860114
KAXX 172215Z AUTO 26003KT 10SM SCT045 BKN065 BKN075 21/12 A3046 RMK AO2 T02070115
KAXX 172155Z AUTO 18013G17KT 10SM SCT120 23/11 A3046 RMK AO2 T02260105
KAXX 172135Z AUTO 21008KT 10SM SCT095 BKN120 23/12 A3045 RMK AO2 T02280116
KAXX 172115Z AUTO 20007KT 10SM BKN095 BKN120 21/11 A3046 RMK AO2 T02060108
KAXX 172055Z AUTO 21011KT 10SM SCT095 SCT120 22/11 A3046 RMK AO2 T02170106
KAXX 172035Z AUTO 19011KT 10SM CLR 21/11 A3047 RMK AO2 T02130106
KAXX 172015Z AUTO 18012KT 10SM SCT050 SCT060 20/11 A3047 RMK AO2 T01990109
KAXX 171955Z AUTO 20016G21KT 10SM SCT048 SCT060 21/11 A3048 RMK AO2 T02120109
KAXX 171935Z AUTO 00000KT 10SM BKN050 23/10 A3047 RMK AO2 T02340098
KAXX 171915Z AUTO 26007KT 10SM SCT050 23/10 A3046 RMK AO2 T02280100
KAXX 171855Z AUTO 28006KT 10SM CLR 23/10 A3047 RMK AO2 T02260104
KAXX 171835Z AUTO 28008KT 10SM SCT095 22/11 A3048 RMK AO2 T02210108
KAXX 171815Z AUTO 24011KT 10SM BKN095 22/11 A3049 RMK AO2 T02180109
KAXX 171755Z AUTO 25012KT 10SM CLR 21/11 A3050 RMK AO2 T02080107 10211 20089
KAXX 171735Z AUTO 26010KT 10SM SCT100 21/11 A3050 RMK AO2 T02090108
KAXX 171715Z AUTO 25008KT 10SM SCT100 BKN120 20/11 A3050 RMK AO2 T02020110
KAXX 171655Z AUTO 27008KT 10SM SCT100 BKN120 20/12 A3050 RMK AO2 T01980115
KAXX 171635Z AUTO 26007KT 10SM SCT120 20/11 A3050 RMK AO2 T02000111
KAXX 171615Z AUTO 00000KT 10SM BKN095 18/12 A3050 RMK AO2 T01820121
KAXX 171555Z AUTO 00000KT 10SM OVC095 17/12 A3050 RMK AO2 T01680117